Wakonda, South Dakota
Current Conditions -  °F | °C
As of 11:35 AM on Tuesday 21 Oct 2014 (Local Time) from KYKN Reporting Station
Clear Clear  
Wind Chill: 66°   Ceiling: Unl
Heat Index: 66°   Visibility: 7mi
Dew Point: 45°   Wind: 14mph
Humidity: 46%   Direction: 140°SE
Pressure: 30.03"   Gusts: 17mph
Location:  43.01°N, 97.11°W
Report Text: KYKN 211635Z AUTO 14012G15KT 7SM CLR 19/07 A3003 RMK AO1
Loading
Personal Weather Stations






























Interactive Weather Map
Tropical Storm Tracking
New forecast layout! Learn more

10-Day Weather Forecast

Advertisements
Track Severe Weather on mobile